Time;durP1;ratioP1;P1;durP2;ratioP2;P2;SDS_P1;SDS_P2;PMS_P1;PMS_P2;Temp;Humidity;BMP_temperature;BMP_pressure;BME280_temperature;BME280_humidity;BME280_pressure;Samples;Min_cycle;Max_cycle;Signal;HPM_P1;HPM_P2
2022/11/21 00:00:05;;;;;;;0.00;0.00;;;;;;;;;;4995536;28;20046;-86
2022/11/21 00:02:33;;;;;;;0.00;0.00;;;;;;;;;;4995086;28;20045;-87
2022/11/21 00:04:58;;;;;;;0.00;0.00;;;;;;;;;;4979430;28;20105;-87
2022/11/21 00:07:26;;;;;;;0.00;0.00;;;;;;;;;;4978568;28;20078;-87
2022/11/21 00:09:52;;;;;;;0.00;0.00;;;;;;;;;;4978996;28;20495;-87
2022/11/21 00:12:21;;;;;;;0.00;0.00;;;;;;;;;;4978647;28;20045;-87
2022/11/21 00:14:47;;;;;;;0.00;0.00;;;;;;;;;;4995073;28;20045;-87
2022/11/21 00:17:13;;;;;;;0.00;0.00;;;;;;;;;;4994688;28;20050;-88
2022/11/21 00:19:39;;;;;;;0.00;0.00;;;;;;;;;;4995135;28;20104;-88
2022/11/21 00:22:05;;;;;;;0.00;0.00;;;;;;;;;;4994789;28;20053;-88
2022/11/21 00:24:31;;;;;;;0.00;0.00;;;;;;;;;;4994761;28;20531;-88
2022/11/21 00:26:57;;;;;;;0.00;0.00;;;;;;;;;;4994509;28;20043;-87
2022/11/21 00:29:23;;;;;;;0.00;0.00;;;;;;;;;;4978520;28;20121;-88
2022/11/21 00:31:49;;;;;;;0.05;0.00;;;;;;;;;;4978272;28;20166;-88
2022/11/21 00:34:16;;;;;;;0.00;0.00;;;;;;;;;;4994880;28;20165;-88
2022/11/21 00:36:42;;;;;;;0.00;0.00;;;;;;;;;;4994890;28;20046;-87
2022/11/21 00:39:08;;;;;;;0.00;0.00;;;;;;;;;;4978042;28;20058;-86
2022/11/21 00:41:34;;;;;;;0.00;0.00;;;;;;;;;;4994331;28;20053;-87
2022/11/21 00:44:00;;;;;;;0.00;0.00;;;;;;;;;;4993912;28;20046;-87
2022/11/21 00:46:26;;;;;;;0.00;0.00;;;;;;;;;;4994442;28;20047;-86
2022/11/21 00:48:52;;;;;;;0.00;0.00;;;;;;;;;;4994364;28;20050;-86
2022/11/21 00:51:18;;;;;;;0.00;0.00;;;;;;;;;;4977990;28;20041;-86
2022/11/21 00:53:46;;;;;;;0.00;0.00;;;;;;;;;;4994224;28;20035;-86
2022/11/21 00:56:12;;;;;;;0.20;0.10;;;;;;;;;;4994175;28;20049;-88
2022/11/21 00:58:41;;;;;;;0.00;0.00;;;;;;;;;;4978604;28;20042;-86
2022/11/21 01:01:09;;;;;;;0.00;0.00;;;;;;;;;;4994040;28;20169;-87
2022/11/21 01:03:39;;;;;;;0.00;0.00;;;;;;;;;;4978083;28;20056;-86
2022/11/21 01:06:09;;;;;;;0.00;0.00;;;;;;;;;;4977488;28;20042;-87
2022/11/21 01:08:36;;;;;;;0.00;0.00;;;;;;;;;;4993746;28;20121;-86
2022/11/21 01:11:06;;;;;;;0.00;0.00;;;;;;;;;;4978172;28;20093;-87
2022/11/21 01:13:33;;;;;;;0.00;0.00;;;;;;;;;;4993661;28;20058;-87
2022/11/21 01:16:06;;;;;;;0.00;0.00;;;;;;;;;;4977844;28;20046;-86
2022/11/21 01:18:33;;;;;;;0.10;0.10;;;;;;;;;;4993761;28;20120;-86
2022/11/21 01:21:00;;;;;;;0.00;0.00;;;;;;;;;;4993717;28;20049;-87
2022/11/21 01:23:27;;;;;;;0.00;0.00;;;;;;;;;;4994204;28;20049;-88
2022/11/21 01:25:53;;;;;;;0.00;0.00;;;;;;;;;;4993675;28;20046;-87
2022/11/21 01:28:20;;;;;;;0.00;0.00;;;;;;;;;;4993337;28;20488;-87
2022/11/21 01:30:46;;;;;;;0.00;0.00;;;;;;;;;;4977292;28;20495;-87
2022/11/21 01:33:12;;;;;;;0.00;0.00;;;;;;;;;;4977205;28;20045;-86
2022/11/21 01:35:38;;;;;;;0.00;0.00;;;;;;;;;;4993423;28;20053;-87
2022/11/21 01:38:03;;;;;;;0.00;0.00;;;;;;;;;;4977020;28;20038;-87
2022/11/21 01:40:29;;;;;;;0.00;0.00;;;;;;;;;;4993307;28;20457;-88
2022/11/21 01:43:03;;;;;;;0.00;0.00;;;;;;;;;;4977211;28;20042;-87
2022/11/21 01:45:49;;;;;;;0.00;0.00;;;;;;;;;;4977128;28;20049;-87
2022/11/21 01:48:15;;;;;;;0.00;0.00;;;;;;;;;;4992936;28;20402;-87
2022/11/21 01:50:41;;;;;;;0.00;0.00;;;;;;;;;;4977011;28;20035;-88
2022/11/21 01:53:08;;;;;;;0.00;0.00;;;;;;;;;;4976858;28;20376;-88
2022/11/21 01:55:34;;;;;;;0.00;0.00;;;;;;;;;;4993247;28;20089;-88
2022/11/21 01:58:01;;;;;;;0.00;0.00;;;;;;;;;;4992820;28;20048;-88
2022/11/21 02:00:29;;;;;;;0.00;0.00;;;;;;;;;;4993170;28;20053;-88
2022/11/21 02:02:59;;;;;;;0.00;0.00;;;;;;;;;;4992802;28;20073;-87
2022/11/21 02:05:29;;;;;;;0.00;0.00;;;;;;;;;;4993043;28;20089;-87
2022/11/21 02:07:56;;;;;;;0.00;0.00;;;;;;;;;;4993012;28;20065;-88
2022/11/21 02:10:24;;;;;;;0.00;0.00;;;;;;;;;;4977200;28;20039;-87
2022/11/21 02:12:51;;;;;;;0.00;0.00;;;;;;;;;;4992606;28;20167;-88
2022/11/21 02:15:18;;;;;;;0.00;0.00;;;;;;;;;;4992879;28;20038;-86
2022/11/21 02:17:45;;;;;;;0.00;0.00;;;;;;;;;;4992435;28;20041;-87
2022/11/21 02:20:13;;;;;;;0.20;0.10;;;;;;;;;;4976650;28;20136;-88
2022/11/21 02:22:39;;;;;;;0.00;0.00;;;;;;;;;;4992504;28;20046;-87
2022/11/21 02:25:11;;;;;;;0.00;0.00;;;;;;;;;;4976361;28;20407;-88
2022/11/21 02:27:40;;;;;;;0.25;0.20;;;;;;;;;;4992277;28;20043;-85
2022/11/21 02:30:08;;;;;;;0.00;0.00;;;;;;;;;;4992929;28;20038;-85
2022/11/21 02:32:39;;;;;;;0.00;0.00;;;;;;;;;;4992239;28;20537;-86
2022/11/21 02:35:08;;;;;;;0.00;0.00;;;;;;;;;;4992694;28;20435;-86
2022/11/21 02:37:39;;;;;;;0.00;0.00;;;;;;;;;;4992434;28;20046;-88
2022/11/21 02:40:07;;;;;;;0.00;0.00;;;;;;;;;;4976284;28;20503;-86
2022/11/21 02:43:00;;;;;;;0.00;0.00;;;;;;;;;;4992674;28;20085;-87
2022/11/21 02:45:26;;;;;;;0.00;0.00;;;;;;;;;;4940503;28;20491;-86
2022/11/21 02:47:53;;;;;;;0.25;0.13;;;;;;;;;;4975975;28;20042;-87
2022/11/21 02:50:22;;;;;;;0.00;0.00;;;;;;;;;;4992327;28;20085;-86
2022/11/21 02:52:49;;;;;;;0.00;0.00;;;;;;;;;;4992213;28;20046;-86
2022/11/21 02:55:15;;;;;;;0.00;0.00;;;;;;;;;;4992711;28;20045;-87
2022/11/21 02:57:41;;;;;;;0.00;0.00;;;;;;;;;;4992102;28;20503;-88
2022/11/21 03:00:10;;;;;;;0.00;0.00;;;;;;;;;;4976183;28;20045;-87
2022/11/21 03:02:38;;;;;;;0.00;0.00;;;;;;;;;;4992185;28;20117;-87
2022/11/21 03:05:04;;;;;;;0.00;0.00;;;;;;;;;;4992227;28;20391;-87
2022/11/21 03:07:30;;;;;;;0.00;0.00;;;;;;;;;;4996240;28;20086;-88
2022/11/21 03:09:56;;;;;;;0.00;0.00;;;;;;;;;;4980250;28;20070;-87
2022/11/21 03:12:22;;;;;;;0.00;0.00;;;;;;;;;;4996024;28;20045;-88
2022/11/21 03:14:48;;;;;;;0.00;0.00;;;;;;;;;;4996193;28;20038;-87
2022/11/21 03:17:14;;;;;;;0.00;0.00;;;;;;;;;;4979601;28;20092;-87
2022/11/21 03:19:40;;;;;;;0.00;0.00;;;;;;;;;;4996315;28;20042;-86
2022/11/21 03:22:07;;;;;;;0.00;0.00;;;;;;;;;;4980141;28;20077;-87
2022/11/21 03:24:33;;;;;;;0.00;0.00;;;;;;;;;;4996056;28;20103;-87
2022/11/21 03:26:59;;;;;;;0.00;0.00;;;;;;;;;;4979823;28;20438;-87
2022/11/21 03:29:26;;;;;;;0.00;0.00;;;;;;;;;;4979513;28;20388;-86
2022/11/21 03:31:52;;;;;;;0.00;0.00;;;;;;;;;;4996131;28;20038;-86
2022/11/21 03:34:18;;;;;;;0.00;0.00;;;;;;;;;;4995785;28;20397;-87
2022/11/21 03:36:44;;;;;;;0.00;0.00;;;;;;;;;;4995851;28;20046;-86
2022/11/21 03:39:12;;;;;;;0.00;0.00;;;;;;;;;;4995357;28;20065;-86
2022/11/21 03:41:38;;;;;;;0.00;0.00;;;;;;;;;;4995797;28;20050;-86
2022/11/21 03:44:06;;;;;;;0.00;0.00;;;;;;;;;;4995416;28;20047;-86
2022/11/21 03:46:34;;;;;;;0.00;0.00;;;;;;;;;;4995546;28;20043;-87
2022/11/21 03:49:01;;;;;;;0.05;0.05;;;;;;;;;;4979423;28;20049;-87
2022/11/21 03:51:27;;;;;;;0.00;0.00;;;;;;;;;;4995593;28;20042;-86
2022/11/21 03:53:53;;;;;;;0.15;0.10;;;;;;;;;;4995290;28;20078;-88
2022/11/21 03:56:19;;;;;;;0.00;0.00;;;;;;;;;;4979816;28;20400;-87
2022/11/21 03:58:46;;;;;;;0.00;0.00;;;;;;;;;;4995210;28;20114;-88
2022/11/21 04:01:12;;;;;;;0.00;0.00;;;;;;;;;;4979308;28;20038;-87
2022/11/21 04:03:39;;;;;;;0.00;0.00;;;;;;;;;;4995187;28;20407;-88
2022/11/21 04:06:05;;;;;;;0.00;0.00;;;;;;;;;;4995386;28;20043;-88
2022/11/21 04:08:31;;;;;;;0.10;0.05;;;;;;;;;;4978918;28;20089;-88
2022/11/21 04:10:58;;;;;;;0.00;0.00;;;;;;;;;;4995128;28;20038;-87
2022/11/21 04:13:24;;;;;;;0.00;0.00;;;;;;;;;;4978987;28;20046;-87
2022/11/21 04:15:50;;;;;;;0.00;0.00;;;;;;;;;;4995396;28;20133;-87
2022/11/21 04:18:17;;;;;;;0.00;0.00;;;;;;;;;;4978593;28;20042;-88
2022/11/21 04:20:44;;;;;;;0.00;0.00;;;;;;;;;;4995219;28;20419;-87
2022/11/21 04:23:10;;;;;;;0.00;0.00;;;;;;;;;;4995034;28;20129;-87
2022/11/21 04:25:39;;;;;;;0.10;0.10;;;;;;;;;;4995130;28;20153;-88
2022/11/21 04:28:05;;;;;;;0.00;0.00;;;;;;;;;;4994937;28;20064;-88
2022/11/21 04:30:32;;;;;;;0.00;0.00;;;;;;;;;;4994800;28;20038;-88
2022/11/21 04:32:58;;;;;;;0.00;0.00;;;;;;;;;;4978721;28;20508;-87
2022/11/21 04:35:25;;;;;;;0.10;0.00;;;;;;;;;;4994723;28;20084;-87
2022/11/21 04:37:51;;;;;;;0.00;0.00;;;;;;;;;;4978703;28;20125;-87
2022/11/21 04:40:17;;;;;;;0.00;0.00;;;;;;;;;;4978110;28;20155;-87
2022/11/21 04:42:44;;;;;;;0.17;0.10;;;;;;;;;;4994566;28;20082;-88
2022/11/21 04:45:10;;;;;;;0.00;0.00;;;;;;;;;;4994378;28;20117;-88
2022/11/21 04:47:37;;;;;;;0.00;0.00;;;;;;;;;;4978198;28;20046;-88
2022/11/21 04:50:03;;;;;;;0.00;0.00;;;;;;;;;;4994644;28;20407;-88
2022/11/21 04:52:29;;;;;;;0.00;0.00;;;;;;;;;;4994324;28;20034;-87
2022/11/21 04:54:55;;;;;;;0.00;0.00;;;;;;;;;;4994588;28;20451;-87
2022/11/21 04:57:22;;;;;;;0.00;0.00;;;;;;;;;;4978248;28;20431;-87
2022/11/21 04:59:49;;;;;;;0.35;0.35;;;;;;;;;;4994152;28;20064;-89
2022/11/21 05:02:15;;;;;;;0.00;0.00;;;;;;;;;;4994291;28;20069;-88
2022/11/21 05:04:41;;;;;;;0.00;0.00;;;;;;;;;;4994072;28;20053;-86
2022/11/21 05:07:07;;;;;;;0.00;0.00;;;;;;;;;;4994301;28;20038;-86
2022/11/21 05:09:33;;;;;;;0.00;0.00;;;;;;;;;;4994188;28;20042;-87
2022/11/21 05:14:44;;;;;;;0.00;0.00;;;;;;;;;;4993880;28;20038;-88
2022/11/21 05:17:10;;;;;;;0.00;0.00;;;;;;;;;;4962312;28;20506;-88
2022/11/21 05:19:36;;;;;;;0.00;0.00;;;;;;;;;;4993710;28;20043;-88
2022/11/21 05:22:02;;;;;;;0.05;0.05;;;;;;;;;;4977864;28;20464;-89
2022/11/21 05:24:28;;;;;;;0.00;0.00;;;;;;;;;;4977717;28;20507;-88
2022/11/21 05:26:54;;;;;;;0.00;0.00;;;;;;;;;;4993821;28;20404;-88
2022/11/21 05:29:21;;;;;;;0.00;0.00;;;;;;;;;;4976873;28;20046;-87
2022/11/21 05:31:47;;;;;;;0.00;0.00;;;;;;;;;;4993966;28;20556;-88
2022/11/21 05:34:13;;;;;;;0.00;0.00;;;;;;;;;;4993859;28;20089;-89
2022/11/21 05:36:39;;;;;;;0.00;0.00;;;;;;;;;;4977739;28;20078;-88
2022/11/21 05:39:05;;;;;;;0.00;0.00;;;;;;;;;;4992944;28;20515;-88
2022/11/21 05:41:31;;;;;;;1.45;0.47;;;;;;;;;;4993513;28;20046;-88
2022/11/21 05:43:58;;;;;;;0.00;0.00;;;;;;;;;;4993602;28;20065;-88
2022/11/21 05:46:24;;;;;;;0.00;0.00;;;;;;;;;;4993446;28;20042;-87
2022/11/21 05:48:52;;;;;;;0.00;0.00;;;;;;;;;;4976996;28;20042;-88
2022/11/21 05:51:19;;;;;;;0.00;0.00;;;;;;;;;;4977394;28;20038;-87
2022/11/21 05:53:46;;;;;;;0.00;0.00;;;;;;;;;;4992971;28;20122;-87
2022/11/21 05:56:13;;;;;;;0.00;0.00;;;;;;;;;;4993442;28;20509;-88
2022/11/21 05:58:39;;;;;;;0.00;0.00;;;;;;;;;;4993208;28;20389;-89
2022/11/21 06:01:06;;;;;;;0.00;0.00;;;;;;;;;;4977074;28;20043;-87
2022/11/21 06:03:34;;;;;;;0.00;0.00;;;;;;;;;;4993266;28;20451;-88
2022/11/21 06:06:07;;;;;;;0.00;0.00;;;;;;;;;;4976772;28;20066;-88
2022/11/21 06:08:37;;;;;;;0.00;0.00;;;;;;;;;;4992967;28;20084;-87
2022/11/21 06:11:04;;;;;;;0.20;0.20;;;;;;;;;;4992708;28;20042;-88
2022/11/21 06:13:32;;;;;;;0.00;0.00;;;;;;;;;;4993035;28;20447;-87
2022/11/21 06:16:05;;;;;;;0.00;0.00;;;;;;;;;;4992940;28;20399;-88
2022/11/21 06:18:35;;;;;;;0.00;0.00;;;;;;;;;;4976769;28;20474;-89
2022/11/21 06:21:19;;;;;;;0.00;0.00;;;;;;;;;;4993021;28;20042;-88
2022/11/21 06:23:45;;;;;;;0.00;0.00;;;;;;;;;;4993214;28;20042;-87
2022/11/21 06:26:13;;;;;;;0.00;0.00;;;;;;;;;;4992657;28;20046;-87
2022/11/21 06:28:39;;;;;;;0.05;0.00;;;;;;;;;;4976593;28;20039;-87
2022/11/21 06:31:09;;;;;;;0.00;0.00;;;;;;;;;;4992594;28;20093;-87
2022/11/21 06:33:36;;;;;;;0.15;0.15;;;;;;;;;;4992663;28;20047;-88
2022/11/21 06:36:03;;;;;;;0.00;0.00;;;;;;;;;;4992681;28;20084;-88
2022/11/21 06:38:29;;;;;;;0.00;0.00;;;;;;;;;;4976334;28;20100;-86
2022/11/21 06:40:55;;;;;;;0.00;0.00;;;;;;;;;;4975872;28;20050;-86
2022/11/21 06:43:21;;;;;;;0.00;0.00;;;;;;;;;;4992810;28;20053;-87
2022/11/21 06:45:47;;;;;;;0.00;0.00;;;;;;;;;;4992442;28;20125;-87
2022/11/21 06:48:12;;;;;;;0.00;0.00;;;;;;;;;;4976634;28;20042;-89
2022/11/21 06:50:38;;;;;;;0.00;0.00;;;;;;;;;;4992429;28;20124;-87
2022/11/21 06:53:05;;;;;;;0.10;0.10;;;;;;;;;;4992600;28;20034;-88
2022/11/21 06:55:31;;;;;;;0.00;0.00;;;;;;;;;;4992430;28;20217;-89
2022/11/21 06:57:58;;;;;;;0.30;0.30;;;;;;;;;;4976641;28;20074;-86
2022/11/21 07:00:24;;;;;;;0.00;0.00;;;;;;;;;;4992973;28;20057;-91
2022/11/21 07:02:50;;;;;;;0.00;0.00;;;;;;;;;;4976390;28;20049;-89
2022/11/21 07:05:16;;;;;;;0.00;0.00;;;;;;;;;;4992463;28;20052;-87
2022/11/21 07:07:42;;;;;;;0.80;0.40;;;;;;;;;;4992214;28;20125;-88
2022/11/21 07:10:09;;;;;;;0.00;0.00;;;;;;;;;;4991994;28;20039;-88
2022/11/21 07:15:21;;;;;;;0.00;0.00;;;;;;;;;;4992405;28;20038;-89
2022/11/21 07:17:47;;;;;;;0.00;0.00;;;;;;;;;;4992890;28;20045;-89
2022/11/21 07:20:14;;;;;;;0.00;0.00;;;;;;;;;;4992040;28;20411;-89
2022/11/21 07:22:39;;;;;;;0.00;0.00;;;;;;;;;;4992760;28;20124;-90
2022/11/21 07:25:06;;;;;;;0.00;0.00;;;;;;;;;;4976008;28;20134;-88
2022/11/21 07:27:32;;;;;;;0.00;0.00;;;;;;;;;;4992127;28;20042;-89
2022/11/21 07:30:01;;;;;;;0.00;0.00;;;;;;;;;;4993643;28;20077;-89
2022/11/21 07:32:27;;;;;;;0.00;0.00;;;;;;;;;;4975921;28;20043;-89
2022/11/21 07:34:53;;;;;;;0.00;0.00;;;;;;;;;;4975972;28;20080;-89
2022/11/21 07:37:19;;;;;;;0.00;0.00;;;;;;;;;;4976734;28;20042;-89
2022/11/21 07:39:45;;;;;;;0.00;0.00;;;;;;;;;;4992061;28;20093;-88
2022/11/21 07:42:11;;;;;;;0.00;0.00;;;;;;;;;;4992756;28;20479;-89
2022/11/21 07:44:37;;;;;;;0.00;0.00;;;;;;;;;;4992387;28;20181;-90
2022/11/21 07:47:03;;;;;;;0.40;0.40;;;;;;;;;;4975520;28;20514;-86
2022/11/21 07:49:29;;;;;;;0.00;0.00;;;;;;;;;;4992230;28;20101;-88
2022/11/21 07:51:55;;;;;;;0.30;0.30;;;;;;;;;;4976985;28;20031;-89
2022/11/21 07:54:21;;;;;;;0.10;0.10;;;;;;;;;;4995754;28;20410;-87
2022/11/21 07:56:48;;;;;;;0.08;0.08;;;;;;;;;;4979887;28;20084;-88
2022/11/21 07:59:14;;;;;;;0.00;0.00;;;;;;;;;;4979209;28;20395;-89
2022/11/21 08:01:40;;;;;;;0.00;0.00;;;;;;;;;;4981670;28;20515;-88
2022/11/21 08:04:08;;;;;;;0.00;0.00;;;;;;;;;;4959481;28;20043;-87
2022/11/21 08:06:34;;;;;;;0.00;0.00;;;;;;;;;;4985861;28;20045;-87
2022/11/21 08:09:00;;;;;;;0.05;0.05;;;;;;;;;;5014614;28;20383;-86
2022/11/21 08:11:26;;;;;;;0.25;0.05;;;;;;;;;;4999188;28;20044;-86
2022/11/21 08:13:52;;;;;;;0.00;0.00;;;;;;;;;;4998928;28;20088;-87
2022/11/21 08:16:18;;;;;;;0.00;0.00;;;;;;;;;;4998284;28;20049;-88
2022/11/21 08:18:44;;;;;;;0.00;0.00;;;;;;;;;;5015658;28;20041;-89
2022/11/21 08:21:10;;;;;;;0.00;0.00;;;;;;;;;;5015230;28;20045;-87
2022/11/21 08:23:36;;;;;;;0.00;0.00;;;;;;;;;;4999523;28;20409;-89
2022/11/21 08:26:02;;;;;;;0.00;0.00;;;;;;;;;;4998590;28;20058;-89
2022/11/21 08:28:28;;;;;;;0.00;0.00;;;;;;;;;;4998420;28;20049;-89
2022/11/21 08:30:54;;;;;;;0.00;0.00;;;;;;;;;;5014752;28;20092;-89
2022/11/21 08:33:20;;;;;;;0.20;0.15;;;;;;;;;;4998561;28;20069;-88
2022/11/21 08:35:46;;;;;;;0.00;0.00;;;;;;;;;;5014241;28;20116;-87
2022/11/21 08:38:12;;;;;;;0.00;0.00;;;;;;;;;;5014701;28;20042;-89
2022/11/21 08:40:39;;;;;;;0.00;0.00;;;;;;;;;;5014379;28;20407;-90
2022/11/21 08:43:08;;;;;;;0.00;0.00;;;;;;;;;;4998528;28;20034;-88
2022/11/21 08:45:35;;;;;;;0.38;0.20;;;;;;;;;;4998418;28;20037;-89
2022/11/21 08:48:01;;;;;;;0.77;0.10;;;;;;;;;;5014504;28;20399;-89
2022/11/21 08:50:27;;;;;;;0.00;0.00;;;;;;;;;;4998507;28;20073;-88
2022/11/21 08:52:58;;;;;;;0.30;0.08;;;;;;;;;;4997703;28;20073;-88
2022/11/21 08:55:27;;;;;;;0.00;0.00;;;;;;;;;;5014087;28;20042;-88
2022/11/21 08:57:53;;;;;;;0.00;0.00;;;;;;;;;;5014220;28;20048;-91
2022/11/21 09:00:20;;;;;;;0.35;0.20;;;;;;;;;;5015092;28;20046;-88
2022/11/21 09:02:46;;;;;;;0.70;0.28;;;;;;;;;;4997850;28;20057;-89
2022/11/21 09:05:12;;;;;;;0.00;0.00;;;;;;;;;;4997955;28;20384;-87
2022/11/21 09:07:40;;;;;;;0.00;0.00;;;;;;;;;;5013575;28;20046;-88
2022/11/21 09:10:07;;;;;;;0.00;0.00;;;;;;;;;;5013816;28;20053;-86
2022/11/21 09:12:33;;;;;;;0.00;0.00;;;;;;;;;;4997150;28;20140;-86
2022/11/21 09:18:01;;;;;;;0.00;0.00;;;;;;;;;;5013202;28;20046;-87
2022/11/21 09:20:28;;;;;;;0.00;0.00;;;;;;;;;;4997427;28;20046;-89
2022/11/21 09:22:55;;;;;;;0.00;0.00;;;;;;;;;;4996932;28;20132;-87
2022/11/21 09:25:21;;;;;;;0.00;0.00;;;;;;;;;;4997607;28;20056;-86
2022/11/21 09:27:48;;;;;;;2.33;0.98;;;;;;;;;;5014317;28;20403;-87
2022/11/21 09:30:14;;;;;;;0.00;0.00;;;;;;;;;;5013482;28;20057;-87
2022/11/21 09:32:40;;;;;;;0.00;0.00;;;;;;;;;;5013556;28;20124;-87
2022/11/21 09:35:07;;;;;;;0.00;0.00;;;;;;;;;;4996896;28;20073;-86
2022/11/21 09:37:37;;;;;;;0.30;0.30;;;;;;;;;;4997037;28;20073;-86
2022/11/21 09:40:04;;;;;;;0.00;0.00;;;;;;;;;;5013257;28;20148;-87
2022/11/21 09:42:40;;;;;;;0.00;0.00;;;;;;;;;;5013664;28;20068;-88
2022/11/21 09:45:09;;;;;;;0.00;0.00;;;;;;;;;;4996757;28;20046;-87
2022/11/21 09:47:42;;;;;;;0.00;0.00;;;;;;;;;;4996426;28;20052;-89
2022/11/21 09:50:14;;;;;;;0.00;0.00;;;;;;;;;;5013399;28;20041;-88
2022/11/21 09:52:43;;;;;;;0.00;0.00;;;;;;;;;;5013565;28;20124;-88
2022/11/21 09:55:38;;;;;;;0.00;0.00;;;;;;;;;;4996665;28;20045;-88
2022/11/21 09:58:06;;;;;;;0.00;0.00;;;;;;;;;;4912851;28;20059;-89
2022/11/21 10:00:33;;;;;;;0.00;0.00;;;;;;;;;;5012806;28;20034;-87
2022/11/21 10:03:00;;;;;;;0.00;0.00;;;;;;;;;;5012946;28;20068;-88
2022/11/21 10:05:35;;;;;;;0.00;0.00;;;;;;;;;;5012825;28;20124;-88
2022/11/21 10:08:05;;;;;;;0.08;0.08;;;;;;;;;;4996066;28;20092;-87
2022/11/21 10:10:41;;;;;;;0.00;0.00;;;;;;;;;;5013226;28;20149;-87
2022/11/21 10:13:07;;;;;;;;;;;;;;;;;;4997834;28;20519;-89
2022/11/21 10:15:33;;;;;;;0.00;0.00;;;;;;;;;;4987607;28;20173;-89
2022/11/21 10:17:59;;;;;;;0.00;0.00;;;;;;;;;;4982746;28;20484;-89
2022/11/21 10:20:33;;;;;;;0.00;0.00;;;;;;;;;;4991635;28;20038;-88
2022/11/21 10:23:11;;;;;;;0.25;0.10;;;;;;;;;;4993143;28;20049;-87
2022/11/21 10:25:38;;;;;;;0.00;0.00;;;;;;;;;;4993077;28;20047;-87
2022/11/21 10:28:08;;;;;;;0.20;0.00;;;;;;;;;;4992526;28;20042;-88
2022/11/21 10:30:35;;;;;;;0.00;0.00;;;;;;;;;;4992729;28;20092;-89
2022/11/21 10:33:05;;;;;;;0.00;0.00;;;;;;;;;;4984600;28;20510;-88
2022/11/21 10:35:50;;;;;;;0.00;0.00;;;;;;;;;;4984696;28;20542;-86
2022/11/21 10:38:21;;;;;;;0.00;0.00;;;;;;;;;;4992292;28;20046;-87
2022/11/21 10:40:50;;;;;;;0.08;0.08;;;;;;;;;;4992742;28;20050;-88
2022/11/21 10:46:04;;;;;;;0.22;0.10;;;;;;;;;;4992878;28;20348;-87
2022/11/21 10:48:31;;;;;;;0.00;0.00;;;;;;;;;;4976033;28;20087;-89
2022/11/21 10:51:07;;;;;;;0.00;0.00;;;;;;;;;;4992355;28;20034;-87
2022/11/21 10:56:19;;;;;;;0.00;0.00;;;;;;;;;;4992827;28;20050;-86
2022/11/21 10:58:46;;;;;;;0.00;0.00;;;;;;;;;;4975771;28;20049;-87
2022/11/21 11:01:29;;;;;;;0.03;0.00;;;;;;;;;;4992300;28;20165;-86
2022/11/21 11:04:13;;;;;;;0.00;0.00;;;;;;;;;;4991887;28;20063;-86
2022/11/21 11:06:40;;;;;;;0.00;0.00;;;;;;;;;;4976551;28;20046;-86
2022/11/21 11:09:21;;;;;;;0.00;0.00;;;;;;;;;;4991919;28;20042;-85
2022/11/21 11:11:47;;;;;;;0.00;0.00;;;;;;;;;;4992132;28;20038;-86
2022/11/21 11:14:15;;;;;;;0.00;0.00;;;;;;;;;;4992023;28;20050;-86
2022/11/21 11:16:46;;;;;;;0.00;0.00;;;;;;;;;;4976007;28;20468;-86
2022/11/21 11:19:12;;;;;;;0.00;0.00;;;;;;;;;;4991969;28;20456;-86
2022/11/21 11:21:38;;;;;;;0.00;0.00;;;;;;;;;;4991999;28;20038;-85
2022/11/21 11:24:13;;;;;;;0.00;0.00;;;;;;;;;;4991926;28;20460;-86
2022/11/21 11:26:48;;;;;;;0.00;0.00;;;;;;;;;;4992813;28;20046;-86
2022/11/21 11:29:25;;;;;;;0.00;0.00;;;;;;;;;;4995765;28;20149;-87
2022/11/21 11:32:03;;;;;;;0.00;0.00;;;;;;;;;;4963879;28;20035;-87
2022/11/21 11:34:40;;;;;;;0.00;0.00;;;;;;;;;;4979556;28;20073;-87
2022/11/21 11:37:24;;;;;;;0.32;0.25;;;;;;;;;;4995802;28;20038;-87
2022/11/21 11:40:17;;;;;;;0.00;0.00;;;;;;;;;;4995751;28;20081;-87
2022/11/21 11:49:02;;;;;;;0.00;0.00;;;;;;;;;;4996828;28;20046;-86
2022/11/21 11:51:31;;;;;;;0.00;0.00;;;;;;;;;;4995802;28;20065;-87
2022/11/21 11:54:02;;;;;;;0.00;0.00;;;;;;;;;;4995602;28;20377;-86
2022/11/21 11:56:35;;;;;;;0.00;0.00;;;;;;;;;;4979623;28;20042;-86
2022/11/21 11:59:11;;;;;;;0.20;0.08;;;;;;;;;;4995826;28;20085;-86
2022/11/21 12:01:40;;;;;;;0.00;0.00;;;;;;;;;;4995833;28;20045;-85
2022/11/21 12:04:11;;;;;;;0.00;0.00;;;;;;;;;;4994919;28;20043;-86
2022/11/21 12:07:13;;;;;;;0.00;0.00;;;;;;;;;;4978969;28;20089;-85
2022/11/21 12:10:01;;;;;;;0.00;0.00;;;;;;;;;;4955469;28;20043;-86
2022/11/21 12:12:33;;;;;;;0.00;0.00;;;;;;;;;;4975997;28;20049;-86
2022/11/21 12:18:14;;;;;;;0.00;0.00;;;;;;;;;;4994669;28;20046;-88
2022/11/21 12:20:59;;;;;;;0.00;0.00;;;;;;;;;;4979124;28;20082;-88
2022/11/21 12:23:33;;;;;;;0.00;0.00;;;;;;;;;;4978349;28;20260;-87
2022/11/21 12:25:59;;;;;;;0.00;0.00;;;;;;;;;;4978893;28;20074;-88
2022/11/21 12:28:46;;;;;;;0.00;0.00;;;;;;;;;;4992966;28;20077;-87
2022/11/21 12:31:17;;;;;;;0.00;0.00;;;;;;;;;;4943033;28;20046;-86
2022/11/21 12:33:49;;;;;;;0.00;0.00;;;;;;;;;;4975167;28;20034;-87
2022/11/21 12:36:34;;;;;;;0.00;0.00;;;;;;;;;;4971610;28;20133;-86
2022/11/21 12:39:03;;;;;;;0.00;0.00;;;;;;;;;;4957525;28;20117;-86
2022/11/21 12:44:46;;;;;;;0.00;0.00;;;;;;;;;;4974922;28;20077;-85
2022/11/21 12:47:30;;;;;;;0.20;0.20;;;;;;;;;;4974870;28;20054;-86
2022/11/21 12:55:41;;;;;;;0.00;0.00;;;;;;;;;;4985198;28;20082;-86
2022/11/21 12:58:20;;;;;;;0.00;0.00;;;;;;;;;;4964536;28;20488;-87
2022/11/21 13:00:49;;;;;;;0.00;0.00;;;;;;;;;;4958628;28;20187;-85
2022/11/21 13:03:32;;;;;;;0.20;0.13;;;;;;;;;;4973865;28;20109;-85
2022/11/21 13:05:58;;;;;;;0.00;0.00;;;;;;;;;;4975117;28;20043;-85
2022/11/21 13:08:33;;;;;;;0.00;0.00;;;;;;;;;;4958033;28;20070;-83
2022/11/21 13:13:59;;;;;;;0.00;0.00;;;;;;;;;;4974091;28;20050;-82
2022/11/21 13:16:36;;;;;;;0.00;0.00;;;;;;;;;;4974565;28;20043;-85
2022/11/21 13:19:20;;;;;;;0.00;0.00;;;;;;;;;;4958197;28;20038;-86
2022/11/21 13:21:47;;;;;;;0.00;0.00;;;;;;;;;;4974048;28;20066;-85
2022/11/21 13:24:32;;;;;;;0.00;0.00;;;;;;;;;;4973620;28;20093;-84
2022/11/21 13:27:00;;;;;;;0.00;0.00;;;;;;;;;;4973759;28;20074;-84
2022/11/21 13:29:26;;;;;;;0.52;0.10;;;;;;;;;;4961771;28;20045;-85
2022/11/21 13:31:52;;;;;;;0.00;0.00;;;;;;;;;;4977752;28;20125;-85
2022/11/21 13:34:47;;;;;;;0.00;0.00;;;;;;;;;;4975133;28;20030;-85
2022/11/21 13:37:34;;;;;;;0.00;0.00;;;;;;;;;;4977350;28;20050;-86
2022/11/21 13:40:21;;;;;;;0.00;0.00;;;;;;;;;;4973699;28;20479;-84
2022/11/21 13:43:10;;;;;;;0.00;0.00;;;;;;;;;;4979332;28;20058;-84
2022/11/21 13:45:38;;;;;;;0.00;0.00;;;;;;;;;;4976965;28;20101;-84
2022/11/21 13:48:20;;;;;;;0.00;0.00;;;;;;;;;;4975237;28;20042;-85
2022/11/21 13:51:05;;;;;;;0.17;0.10;;;;;;;;;;4982319;28;20085;-85
2022/11/21 13:53:31;;;;;;;0.00;0.00;;;;;;;;;;4966438;28;20070;-85
2022/11/21 13:56:16;;;;;;;0.00;0.00;;;;;;;;;;4979535;28;20424;-84
2022/11/21 13:58:57;;;;;;;0.00;0.00;;;;;;;;;;4992958;28;20487;-84
2022/11/21 14:01:45;;;;;;;0.10;0.08;;;;;;;;;;4993223;28;20307;-86
2022/11/21 14:04:17;;;;;;;0.00;0.00;;;;;;;;;;4975278;28;20109;-86
2022/11/21 14:06:44;;;;;;;0.00;0.00;;;;;;;;;;4975559;28;20050;-86
2022/11/21 14:09:21;;;;;;;0.55;0.30;;;;;;;;;;4964432;28;20046;-86
2022/11/21 14:12:01;;;;;;;0.00;0.00;;;;;;;;;;4976144;28;20578;-86
2022/11/21 14:14:36;;;;;;;0.00;0.00;;;;;;;;;;4976544;28;20455;-85
2022/11/21 14:17:15;;;;;;;0.00;0.00;;;;;;;;;;4992780;28;20483;-86
2022/11/21 14:19:43;;;;;;;0.00;0.00;;;;;;;;;;4976575;28;20069;-85
2022/11/21 14:22:25;;;;;;;0.57;0.13;;;;;;;;;;4970353;28;20121;-85
2022/11/21 14:24:52;;;;;;;0.00;0.00;;;;;;;;;;4975941;28;20548;-87
2022/11/21 14:27:25;;;;;;;0.20;0.15;;;;;;;;;;4984585;28;20043;-86
2022/11/21 14:29:51;;;;;;;0.55;0.32;;;;;;;;;;4975244;28;20208;-85
2022/11/21 14:32:24;;;;;;;0.00;0.00;;;;;;;;;;4964723;28;20520;-86
2022/11/21 14:34:51;;;;;;;0.00;0.00;;;;;;;;;;4972881;28;20038;-86
2022/11/21 14:37:18;;;;;;;0.00;0.00;;;;;;;;;;4956819;28;20408;-86
2022/11/21 14:39:46;;;;;;;0.00;0.00;;;;;;;;;;4941282;28;20098;-86
2022/11/21 14:42:16;;;;;;;0.00;0.00;;;;;;;;;;4973008;28;20046;-86
2022/11/21 14:44:42;;;;;;;0.00;0.00;;;;;;;;;;4973169;28;20130;-86
2022/11/21 14:47:16;;;;;;;0.00;0.00;;;;;;;;;;4956737;28;20050;-86
2022/11/21 14:49:54;;;;;;;0.00;0.00;;;;;;;;;;4956466;28;20070;-86
2022/11/21 14:52:32;;;;;;;0.00;0.00;;;;;;;;;;4961117;28;20067;-87
2022/11/21 14:55:02;;;;;;;0.00;0.00;;;;;;;;;;4956237;28;20065;-87
2022/11/21 14:57:33;;;;;;;0.00;0.00;;;;;;;;;;4987130;28;20045;-86
2022/11/21 14:59:59;;;;;;;0.00;0.00;;;;;;;;;;4966968;28;20047;-88
2022/11/21 15:02:26;;;;;;;0.00;0.00;;;;;;;;;;4965642;28;20039;-87
2022/11/21 15:04:56;;;;;;;0.08;0.08;;;;;;;;;;4972653;28;20035;-88
2022/11/21 15:07:26;;;;;;;0.00;0.00;;;;;;;;;;4956681;28;20070;-87
2022/11/21 15:09:52;;;;;;;0.00;0.00;;;;;;;;;;4956412;28;20134;-86
2022/11/21 15:12:23;;;;;;;6.78;0.30;;;;;;;;;;4973154;28;20046;-88
2022/11/21 15:14:53;;;;;;;0.00;0.00;;;;;;;;;;4972864;28;20521;-86
2022/11/21 15:17:21;;;;;;;0.00;0.00;;;;;;;;;;4972638;28;20078;-87
2022/11/21 15:20:02;;;;;;;0.08;0.00;;;;;;;;;;4956696;28;20058;-87
2022/11/21 15:22:32;;;;;;;0.00;0.00;;;;;;;;;;4971278;28;20049;-86
2022/11/21 15:25:05;;;;;;;0.00;0.00;;;;;;;;;;4974493;28;20046;-86
2022/11/21 15:27:32;;;;;;;0.90;0.55;;;;;;;;;;4982438;28;20046;-86
2022/11/21 15:30:13;;;;;;;0.00;0.00;;;;;;;;;;4980404;28;20070;-88